createdAt,value
2018-05-27T00:04:26.893Z,10.39
2018-05-27T00:10:21.960Z,10.08
2018-05-27T00:16:16.905Z,10.33
2018-05-27T00:22:11.913Z,9.87
2018-05-27T00:28:06.942Z,9.51
2018-05-27T00:34:01.932Z,9.2
2018-05-27T00:39:56.905Z,9.81
2018-05-27T00:45:51.931Z,10.53
2018-05-27T00:51:46.948Z,11.41
2018-05-27T00:57:41.917Z,9.46
2018-05-27T01:03:36.944Z,10.48
2018-05-27T01:09:31.930Z,10.79
2018-05-27T01:15:26.930Z,9.7
2018-05-27T01:21:21.953Z,10.58
2018-05-27T01:27:16.979Z,11.17
2018-05-27T01:33:11.955Z,9.88
2018-05-27T01:39:07.141Z,10.25
2018-05-27T01:45:02.412Z,10.38
2018-05-27T01:50:56.961Z,9.46
2018-05-27T01:56:51.981Z,9.85
2018-05-27T02:02:47.021Z,10.08
2018-05-27T02:08:41.953Z,10.06
2018-05-27T02:14:36.958Z,9.95
2018-05-27T02:20:31.975Z,10.15
2018-05-27T02:26:26.971Z,10.11
2018-05-27T02:32:21.971Z,9.21
2018-05-27T02:38:17.060Z,9.85
2018-05-27T02:44:11.982Z,8.87
2018-05-27T02:50:07.024Z,10.34
2018-05-27T02:56:01.994Z,10.15
2018-05-27T03:01:57.007Z,10.88
2018-05-27T03:07:52.026Z,10.41
2018-05-27T03:13:47.025Z,11.07
2018-05-27T03:19:42.012Z,11.42
2018-05-27T03:25:36.999Z,11.18
2018-05-27T03:31:32.045Z,10.49
2018-05-27T03:37:27.038Z,9.39
2018-05-27T03:43:22.049Z,9.41
2018-05-27T03:49:17.032Z,9.4
2018-05-27T03:55:12.055Z,9.13
2018-05-27T04:01:07.044Z,8.82
2018-05-27T04:07:02.106Z,8.1
2018-05-27T04:12:57.051Z,8.02
2018-05-27T04:18:52.073Z,9.81
2018-05-27T04:24:47.091Z,9.52
2018-05-27T04:30:42.124Z,8.74
2018-05-27T04:36:37.186Z,10.08
2018-05-27T04:42:32.137Z,10.51
2018-05-27T04:48:27.103Z,10.08
2018-05-27T04:54:22.077Z,10.13
2018-05-27T05:00:17.087Z,9.28
2018-05-27T05:06:12.071Z,9.25
2018-05-27T05:12:07.125Z,8.84
2018-05-27T05:18:02.074Z,8.09
2018-05-27T05:23:57.081Z,8.63
2018-05-27T05:29:52.101Z,8.8
2018-05-27T05:35:47.092Z,11.04
2018-05-27T05:41:42.201Z,10.24
2018-05-27T05:47:37.125Z,9.72
2018-05-27T05:53:32.137Z,10.8
2018-05-27T05:59:27.117Z,11.07
2018-05-27T06:05:22.106Z,10.77
2018-05-27T06:11:17.130Z,11.2
2018-05-27T06:17:12.130Z,11.06
2018-05-27T06:23:07.161Z,11.47
2018-05-27T06:29:02.154Z,11.75
2018-05-27T06:34:57.156Z,11.44
2018-05-27T06:40:52.189Z,11.32
2018-05-27T06:46:47.164Z,11.36
2018-05-27T06:52:42.140Z,10.15
2018-05-27T06:58:37.140Z,10.2
2018-05-27T07:04:32.254Z,9.13
2018-05-27T07:10:27.159Z,9.34
2018-05-27T07:16:22.215Z,9.61
2018-05-27T07:22:17.200Z,8.32
2018-05-27T07:28:12.306Z,9.11
2018-05-27T07:34:07.164Z,9.39
2018-05-27T07:40:02.547Z,9.72
2018-05-27T07:45:57.173Z,8.67
2018-05-27T07:51:52.281Z,9.57
2018-05-27T07:57:47.232Z,8.34
2018-05-27T08:03:42.255Z,7.5
2018-05-27T08:09:37.245Z,7.4
2018-05-27T08:15:32.277Z,7.63
2018-05-27T08:21:27.224Z,7.27
2018-05-27T08:27:22.262Z,8.08
2018-05-27T08:33:17.230Z,8.13
2018-05-27T08:39:12.209Z,7.84
2018-05-27T08:45:07.224Z,7.06
2018-05-27T08:51:02.259Z,6.95
2018-05-27T08:56:57.264Z,7.13
2018-05-27T09:02:52.236Z,6.89
2018-05-27T09:08:47.260Z,6.24
2018-05-27T09:14:42.324Z,6.73
2018-05-27T09:20:37.283Z,6.44
2018-05-27T09:26:32.337Z,6.04
2018-05-27T09:32:27.293Z,6.12
2018-05-27T09:38:22.293Z,5.74
2018-05-27T09:44:17.299Z,5.76
2018-05-27T09:50:12.327Z,6.34
2018-05-27T09:56:07.282Z,5.29
2018-05-27T10:02:02.374Z,5.49
2018-05-27T10:07:57.277Z,7.72
2018-05-27T10:13:52.329Z,6.24
2018-05-27T10:19:47.316Z,4.64
2018-05-27T10:25:42.378Z,4.71
2018-05-27T10:31:37.356Z,4.41
2018-05-27T10:37:32.309Z,8.26
2018-05-27T10:43:27.337Z,5.45
2018-05-27T10:49:22.337Z,6.54
2018-05-27T10:55:17.345Z,5.52
2018-05-27T11:01:12.361Z,5.61
2018-05-27T11:07:07.342Z,2.59
2018-05-27T11:13:02.358Z,2.81
2018-05-27T11:18:57.392Z,2.26
2018-05-27T11:24:52.372Z,2.23
2018-05-27T11:30:47.425Z,2.09
2018-05-27T11:36:42.391Z,2.04
2018-05-27T11:42:37.396Z,1.39
2018-05-27T11:48:32.460Z,1.54
2018-05-27T11:54:27.411Z,1.18
2018-05-27T12:00:22.468Z,1.39
2018-05-27T12:06:17.374Z,1.59
2018-05-27T12:12:12.420Z,1.5
2018-05-27T12:18:07.402Z,1.43
2018-05-27T12:24:02.414Z,1.8
2018-05-27T12:29:57.477Z,2.06
2018-05-27T12:35:52.473Z,1.03
2018-05-27T12:41:47.434Z,2.7
2018-05-27T12:47:42.435Z,1.81
2018-05-27T12:53:37.454Z,1.46
2018-05-27T12:59:32.441Z,2.06
2018-05-27T13:05:27.447Z,1.94
2018-05-27T13:11:22.447Z,2.6
2018-05-27T13:17:17.492Z,2.13
2018-05-27T13:23:12.466Z,2.53
2018-05-27T13:29:07.507Z,2.57
2018-05-27T13:35:02.470Z,2.05
2018-05-27T13:40:57.575Z,2.17
2018-05-27T13:46:52.498Z,2.66
2018-05-27T13:52:47.472Z,2.23
2018-05-27T13:58:42.512Z,2.09
2018-05-27T14:04:37.527Z,1.99
2018-05-27T14:10:32.474Z,2.31
2018-05-27T14:16:27.497Z,2.38
2018-05-27T14:22:22.507Z,2.36
2018-05-27T14:28:17.528Z,2.55
2018-05-27T14:34:12.512Z,2.5
2018-05-27T14:40:07.546Z,2.51
2018-05-27T14:46:02.556Z,2.57
2018-05-27T14:51:57.550Z,2.33
2018-05-27T14:57:52.566Z,2.45
2018-05-27T15:03:47.520Z,3.28
2018-05-27T15:09:42.546Z,4.13
2018-05-27T15:15:37.572Z,4.2
2018-05-27T15:21:32.585Z,3.92
2018-05-27T15:27:27.573Z,3.66
2018-05-27T15:33:22.562Z,5.68
2018-05-27T15:39:17.593Z,6.26
2018-05-27T15:45:12.655Z,6.81
2018-05-27T15:51:07.583Z,6.85
2018-05-27T15:57:02.584Z,8.23
2018-05-27T16:02:57.637Z,7.2
2018-05-27T16:08:52.612Z,7.77
2018-05-27T16:14:47.600Z,7.92
2018-05-27T16:20:42.650Z,8.3
2018-05-27T16:26:37.590Z,8.27
2018-05-27T16:32:32.593Z,8.76
2018-05-27T16:38:27.641Z,8.39
2018-05-27T16:44:22.598Z,8.5
2018-05-27T16:50:17.636Z,8.55
2018-05-27T16:56:12.642Z,9.15
2018-05-27T17:02:07.654Z,9.17
2018-05-27T17:08:02.646Z,8.26
2018-05-27T17:13:57.655Z,8.35
2018-05-27T17:19:52.653Z,8.73
2018-05-27T17:25:47.673Z,7.81
2018-05-27T17:31:42.654Z,8.58
2018-05-27T17:37:37.659Z,9.08
2018-05-27T17:43:32.687Z,8.81
2018-05-27T17:49:27.684Z,8.17
2018-05-27T17:55:22.689Z,8.76
2018-05-27T18:01:17.705Z,8.67
2018-05-27T18:07:12.701Z,8.82
2018-05-27T18:13:07.667Z,9.31
2018-05-27T18:19:02.669Z,10.3
2018-05-27T18:24:57.699Z,8.73
2018-05-27T18:30:52.684Z,9.78
2018-05-27T18:36:47.761Z,10.18
2018-05-27T18:42:42.696Z,8.69
2018-05-27T18:48:37.698Z,9.72
2018-05-27T18:54:32.718Z,10.21
2018-05-27T19:00:27.820Z,9.77
2018-05-27T19:06:22.722Z,10.11
2018-05-27T19:12:17.733Z,9.88
2018-05-27T19:18:12.718Z,9.73
2018-05-27T19:24:07.735Z,10.44
2018-05-27T19:30:02.745Z,10.27
2018-05-27T19:35:57.753Z,10.27
2018-05-27T19:41:52.735Z,10
2018-05-27T19:47:47.741Z,10.11
2018-05-27T19:53:42.728Z,9.83
2018-05-27T19:59:37.815Z,10.06
2018-05-27T20:05:32.761Z,10.07
2018-05-27T20:11:27.792Z,8.78
2018-05-27T20:17:22.790Z,9.45
2018-05-27T20:23:17.764Z,10.16
2018-05-27T20:29:12.767Z,10.67
2018-05-27T20:35:07.783Z,10.38
2018-05-27T20:41:02.801Z,9.87
2018-05-27T20:46:57.836Z,10.17
2018-05-27T20:52:52.811Z,11.99
2018-05-27T20:58:47.799Z,19.81
2018-05-27T21:04:42.811Z,22.25
2018-05-27T21:10:37.797Z,17.77
2018-05-27T21:16:32.788Z,14.47
2018-05-27T21:22:27.845Z,12.58
2018-05-27T21:28:22.828Z,13.02
2018-05-27T21:34:17.834Z,12.91
2018-05-27T21:40:12.832Z,11.7
2018-05-27T21:46:07.898Z,11.55
2018-05-27T21:52:02.852Z,11.76
2018-05-27T21:57:57.813Z,10.51
2018-05-27T22:03:52.839Z,10.88
2018-05-27T22:09:47.834Z,10.96
2018-05-27T22:15:42.824Z,11.39
2018-05-27T22:21:37.858Z,11.65
2018-05-27T22:27:32.860Z,10.7
2018-05-27T22:33:27.905Z,11.16
2018-05-27T22:39:22.881Z,11.26
2018-05-27T22:45:17.923Z,11.24
2018-05-27T22:51:12.897Z,10.95
2018-05-27T22:57:07.869Z,11.75
2018-05-27T23:03:02.858Z,12.31
2018-05-27T23:08:57.864Z,12.45
2018-05-27T23:14:52.903Z,11.82
2018-05-27T23:20:47.913Z,12.03
2018-05-27T23:26:42.891Z,11.05
2018-05-27T23:32:37.905Z,11.71
2018-05-27T23:38:32.917Z,12.14
2018-05-27T23:44:27.896Z,12.11
2018-05-27T23:50:22.911Z,12.01
2018-05-27T23:56:17.931Z,11.55
